sensor_id;sensor_type;location;lat;lon;timestamp;pressure;altitude;pressure_sealevel;temperature
64600;BMP280;6553;48.412;9.514;2023-03-23T00:02:30;71699.13;;;20.18
64600;BMP280;6553;48.412;9.514;2023-03-23T00:05:02;71698.06;;;20.17
64600;BMP280;6553;48.412;9.514;2023-03-23T00:07:29;71698.16;;;20.15
64600;BMP280;6553;48.412;9.514;2023-03-23T00:09:55;71696.34;;;20.18
64600;BMP280;6553;48.412;9.514;2023-03-23T00:12:24;71695.28;;;20.17
64600;BMP280;6553;48.412;9.514;2023-03-23T00:15:04;71703.47;;;20.20
64600;BMP280;6553;48.412;9.514;2023-03-23T00:17:32;71700.84;;;20.17
64600;BMP280;6553;48.412;9.514;2023-03-23T00:19:59;71697.53;;;20.17
64600;BMP280;6553;48.412;9.514;2023-03-23T00:22:28;71696.34;;;20.18
64600;BMP280;6553;48.412;9.514;2023-03-23T00:24:54;71693.69;;;20.16
64600;BMP280;6553;48.412;9.514;2023-03-23T00:27:21;71691.56;;;20.14
64600;BMP280;6553;48.412;9.514;2023-03-23T00:29:51;71697.53;;;20.17
64600;BMP280;6553;48.412;9.514;2023-03-23T00:32:22;71694.88;;;20.14
64600;BMP280;6553;48.412;9.514;2023-03-23T00:34:57;71696.44;;;20.16
64600;BMP280;6553;48.412;9.514;2023-03-23T00:37:27;71697.00;;;20.16
64600;BMP280;6553;48.412;9.514;2023-03-23T00:39:52;71695.41;;;20.15
64600;BMP280;6553;48.412;9.514;2023-03-23T00:42:23;71695.41;;;20.15
64600;BMP280;6553;48.412;9.514;2023-03-23T00:44:49;71693.16;;;20.15
64600;BMP280;6553;48.412;9.514;2023-03-23T00:47:16;71695.91;;;20.15
64600;BMP280;6553;48.412;9.514;2023-03-23T00:49:43;71695.41;;;20.15
64600;BMP280;6553;48.412;9.514;2023-03-23T00:52:10;71692.09;;;20.14
64600;BMP280;6553;48.412;9.514;2023-03-23T00:54:36;71694.88;;;20.14
64600;BMP280;6553;48.412;9.514;2023-03-23T00:57:04;71687.72;;;20.13
64600;BMP280;6553;48.412;9.514;2023-03-23T00:59:30;71690.38;;;20.15
64600;BMP280;6553;48.412;9.514;2023-03-23T01:01:56;71695.41;;;20.15
64600;BMP280;6553;48.412;9.514;2023-03-23T01:04:22;71695.41;;;20.15
64600;BMP280;6553;48.412;9.514;2023-03-23T01:06:50;71692.09;;;20.14
64600;BMP280;6553;48.412;9.514;2023-03-23T01:09:18;71695.91;;;20.15
64600;BMP280;6553;48.412;9.514;2023-03-23T01:11:50;71695.91;;;20.15
64600;BMP280;6553;48.412;9.514;2023-03-23T01:14:19;71692.09;;;20.14
64600;BMP280;6553;48.412;9.514;2023-03-23T01:16:45;71693.28;;;20.13
64600;BMP280;6553;48.412;9.514;2023-03-23T01:19:11;71692.75;;;20.12
64600;BMP280;6553;48.412;9.514;2023-03-23T01:21:38;71696.03;;;20.13
64600;BMP280;6553;48.412;9.514;2023-03-23T01:24:04;71688.28;;;20.13
64600;BMP280;6553;48.412;9.514;2023-03-23T01:26:30;71693.28;;;20.13
64600;BMP280;6553;48.412;9.514;2023-03-23T01:28:57;71692.75;;;20.12
64600;BMP280;6553;48.412;9.514;2023-03-23T01:31:25;71689.97;;;20.12
64600;BMP280;6553;48.412;9.514;2023-03-23T01:33:52;71692.75;;;20.12
64600;BMP280;6553;48.412;9.514;2023-03-23T01:36:24;71692.19;;;20.12
64600;BMP280;6553;48.412;9.514;2023-03-23T01:38:52;71686.66;;;20.12
64600;BMP280;6553;48.412;9.514;2023-03-23T01:41:20;71693.81;;;20.13
64600;BMP280;6553;48.412;9.514;2023-03-23T01:46:35;71694.97;;;20.12
64600;BMP280;6553;48.412;9.514;2023-03-23T01:49:08;71693.28;;;20.13
64600;BMP280;6553;48.412;9.514;2023-03-23T01:51:43;71690.63;;;20.10
64600;BMP280;6553;48.412;9.514;2023-03-23T01:54:14;71691.16;;;20.11
64600;BMP280;6553;48.412;9.514;2023-03-23T01:56:52;71687.72;;;20.13
64600;BMP280;6553;48.412;9.514;2023-03-23T01:59:21;71692.19;;;20.12
64600;BMP280;6553;48.412;9.514;2023-03-23T02:01:59;71685.06;;;20.10
64600;BMP280;6553;48.412;9.514;2023-03-23T02:04:28;71690.63;;;20.10
64600;BMP280;6553;48.412;9.514;2023-03-23T02:06:56;71691.69;;;20.11
64600;BMP280;6553;48.412;9.514;2023-03-23T02:09:26;71691.69;;;20.11
64600;BMP280;6553;48.412;9.514;2023-03-23T02:11:53;71695.50;;;20.12
64600;BMP280;6553;48.412;9.514;2023-03-23T02:14:23;71691.69;;;20.11
64600;BMP280;6553;48.412;9.514;2023-03-23T02:17:33;71692.19;;;20.12
64600;BMP280;6553;48.412;9.514;2023-03-23T02:20:17;71688.38;;;20.11
64600;BMP280;6553;48.412;9.514;2023-03-23T02:26:29;71686.66;;;20.12
64600;BMP280;6553;48.412;9.514;2023-03-23T02:29:39;71689.44;;;20.12
64600;BMP280;6553;48.412;9.514;2023-03-23T02:35:22;71688.38;;;20.11
64600;BMP280;6553;48.412;9.514;2023-03-23T02:38:00;71692.31;;;20.09
64600;BMP280;6553;48.412;9.514;2023-03-23T02:40:39;71685.06;;;20.10
64600;BMP280;6553;48.412;9.514;2023-03-23T02:43:12;71686.78;;;20.09
64600;BMP280;6553;48.412;9.514;2023-03-23T02:45:41;71685.06;;;20.10
64600;BMP280;6553;48.412;9.514;2023-03-23T02:48:10;71696.69;;;20.11
64600;BMP280;6553;48.412;9.514;2023-03-23T02:50:42;71690.63;;;20.10
64600;BMP280;6553;48.412;9.514;2023-03-23T02:53:13;71686.16;;;20.11
64600;BMP280;6553;48.412;9.514;2023-03-23T02:55:43;71689.03;;;20.09
64600;BMP280;6553;48.412;9.514;2023-03-23T02:58:15;71689.56;;;20.09
64600;BMP280;6553;48.412;9.514;2023-03-23T03:00:43;71691.16;;;20.11
64600;BMP280;6553;48.412;9.514;2023-03-23T03:03:15;71689.03;;;20.09
64600;BMP280;6553;48.412;9.514;2023-03-23T03:11:08;71683.47;;;20.09
64600;BMP280;6553;48.412;9.514;2023-03-23T03:16:37;71689.56;;;20.09
64600;BMP280;6553;48.412;9.514;2023-03-23T03:21:40;71689.56;;;20.09
64600;BMP280;6553;48.412;9.514;2023-03-23T03:24:10;71681.34;;;20.07
64600;BMP280;6553;48.412;9.514;2023-03-23T03:26:46;71686.25;;;20.09
64600;BMP280;6553;48.412;9.514;2023-03-23T03:29:34;71689.56;;;20.09
64600;BMP280;6553;48.412;9.514;2023-03-23T03:32:05;71688.50;;;20.08
64600;BMP280;6553;48.412;9.514;2023-03-23T03:34:34;71684.66;;;20.07
64600;BMP280;6553;48.412;9.514;2023-03-23T03:37:01;71687.97;;;20.08
64600;BMP280;6553;48.412;9.514;2023-03-23T03:39:30;71682.44;;;20.08
64600;BMP280;6553;48.412;9.514;2023-03-23T03:41:56;71690.19;;;20.07
64600;BMP280;6553;48.412;9.514;2023-03-23T03:44:22;71687.44;;;20.07
64600;BMP280;6553;48.412;9.514;2023-03-23T03:46:47;71682.94;;;20.08
64600;BMP280;6553;48.412;9.514;2023-03-23T03:49:13;71689.03;;;20.09
64600;BMP280;6553;48.412;9.514;2023-03-23T03:51:41;71687.97;;;20.08
64600;BMP280;6553;48.412;9.514;2023-03-23T03:54:12;71685.19;;;20.08
64600;BMP280;6553;48.412;9.514;2023-03-23T03:56:38;71687.44;;;20.07
64600;BMP280;6553;48.412;9.514;2023-03-23T03:59:32;71681.34;;;20.07
64600;BMP280;6553;48.412;9.514;2023-03-23T04:02:24;71688.50;;;20.08
64600;BMP280;6553;48.412;9.514;2023-03-23T04:04:51;71702.44;;;20.06
64600;BMP280;6553;48.412;9.514;2023-03-23T04:07:18;71687.97;;;20.08
64600;BMP280;6553;48.412;9.514;2023-03-23T04:09:45;71690.19;;;20.07
64600;BMP280;6553;48.412;9.514;2023-03-23T04:12:15;71685.72;;;20.08
64600;BMP280;6553;48.412;9.514;2023-03-23T04:14:57;71685.81;;;20.06
64600;BMP280;6553;48.412;9.514;2023-03-23T04:17:29;71685.81;;;20.06
64600;BMP280;6553;48.412;9.514;2023-03-23T04:19:55;71685.81;;;20.06
64600;BMP280;6553;48.412;9.514;2023-03-23T04:22:27;71686.38;;;20.06
64600;BMP280;6553;48.412;9.514;2023-03-23T04:25:00;71687.97;;;20.08
64600;BMP280;6553;48.412;9.514;2023-03-23T04:27:28;71687.44;;;20.07
64600;BMP280;6553;48.412;9.514;2023-03-23T04:29:56;71682.94;;;20.08
64600;BMP280;6553;48.412;9.514;2023-03-23T04:32:39;71686.38;;;20.06
64600;BMP280;6553;48.412;9.514;2023-03-23T04:35:13;71687.97;;;20.08
64600;BMP280;6553;48.412;9.514;2023-03-23T04:37:45;71679.75;;;20.05
64600;BMP280;6553;48.412;9.514;2023-03-23T04:40:16;71680.94;;;20.04
64600;BMP280;6553;48.412;9.514;2023-03-23T04:42:48;71690.81;;;20.05
64600;BMP280;6553;48.412;9.514;2023-03-23T04:45:40;71689.13;;;20.06
64600;BMP280;6553;48.412;9.514;2023-03-23T04:48:11;71681.03;;;20.01
64600;BMP280;6553;48.412;9.514;2023-03-23T04:50:47;71680.81;;;20.06
64600;BMP280;6553;48.412;9.514;2023-03-23T04:53:21;71681.34;;;20.07
64600;BMP280;6553;48.412;9.514;2023-03-23T04:55:48;71681.03;;;20.01
64600;BMP280;6553;48.412;9.514;2023-03-23T04:58:16;71680.81;;;20.06
64600;BMP280;6553;48.412;9.514;2023-03-23T05:01:01;71679.75;;;20.05
64600;BMP280;6553;48.412;9.514;2023-03-23T05:03:27;71687.03;;;20.04
64600;BMP280;6553;48.412;9.514;2023-03-23T05:05:55;71678.72;;;20.04
64600;BMP280;6553;48.412;9.514;2023-03-23T05:08:23;71683.06;;;20.06
64600;BMP280;6553;48.412;9.514;2023-03-23T05:10:57;71684.78;;;20.05
64600;BMP280;6553;48.412;9.514;2023-03-23T05:13:26;71683.19;;;20.03
64600;BMP280;6553;48.412;9.514;2023-03-23T05:15:54;71684.25;;;20.04
64600;BMP280;6553;48.412;9.514;2023-03-23T05:18:21;71678.72;;;20.04
64600;BMP280;6553;48.412;9.514;2023-03-23T05:20:47;71683.19;;;20.03
64600;BMP280;6553;48.412;9.514;2023-03-23T05:23:17;71677.09;;;20.03
64600;BMP280;6553;48.412;9.514;2023-03-23T05:25:57;71680.41;;;20.03
64600;BMP280;6553;48.412;9.514;2023-03-23T05:28:27;71679.34;;;20.02
64600;BMP280;6553;48.412;9.514;2023-03-23T05:30:57;71684.25;;;20.04
64600;BMP280;6553;48.412;9.514;2023-03-23T05:33:27;71680.41;;;20.03
64600;BMP280;6553;48.412;9.514;2023-03-23T05:36:15;71683.72;;;20.04
64600;BMP280;6553;48.412;9.514;2023-03-23T05:38:59;71682.66;;;20.03
64600;BMP280;6553;48.412;9.514;2023-03-23T05:41:27;71676.03;;;20.02
64600;BMP280;6553;48.412;9.514;2023-03-23T05:43:53;71678.94;;;19.99
64600;BMP280;6553;48.412;9.514;2023-03-23T05:46:23;71677.84;;;19.98
64600;BMP280;6553;48.412;9.514;2023-03-23T05:48:51;71686.56;;;20.01
64600;BMP280;6553;48.412;9.514;2023-03-23T05:51:21;71676.56;;;20.02
64600;BMP280;6553;48.412;9.514;2023-03-23T05:53:47;71679.34;;;20.02
64600;BMP280;6553;48.412;9.514;2023-03-23T05:56:15;71680.53;;;20.01
64600;BMP280;6553;48.412;9.514;2023-03-23T05:59:13;71684.34;;;20.02
64600;BMP280;6553;48.412;9.514;2023-03-23T06:01:42;71680.00;;;20.00
64600;BMP280;6553;48.412;9.514;2023-03-23T06:04:08;71678.94;;;19.99
64600;BMP280;6553;48.412;9.514;2023-03-23T06:06:54;71678.72;;;20.04
64600;BMP280;6553;48.412;9.514;2023-03-23T06:09:20;71677.09;;;20.03
64600;BMP280;6553;48.412;9.514;2023-03-23T06:12:04;71676.56;;;20.02
64600;BMP280;6553;48.412;9.514;2023-03-23T06:14:43;71682.66;;;20.03
64600;BMP280;6553;48.412;9.514;2023-03-23T06:17:12;71687.03;;;20.04
64600;BMP280;6553;48.412;9.514;2023-03-23T06:19:38;71690.81;;;20.05
64600;BMP280;6553;48.412;9.514;2023-03-23T06:22:09;71685.28;;;20.05
64600;BMP280;6553;48.412;9.514;2023-03-23T06:25:02;71679.75;;;20.05
64600;BMP280;6553;48.412;9.514;2023-03-23T06:27:38;71682.09;;;20.02
64600;BMP280;6553;48.412;9.514;2023-03-23T06:30:05;71684.78;;;20.05
64600;BMP280;6553;48.412;9.514;2023-03-23T06:32:33;71682.09;;;20.02
64600;BMP280;6553;48.412;9.514;2023-03-23T06:35:00;71680.94;;;20.04
64600;BMP280;6553;48.412;9.514;2023-03-23T06:37:32;71683.19;;;20.03
64600;BMP280;6553;48.412;9.514;2023-03-23T06:40:09;71685.81;;;20.06
64600;BMP280;6553;48.412;9.514;2023-03-23T06:42:38;71687.03;;;20.04
64600;BMP280;6553;48.412;9.514;2023-03-23T06:45:25;71686.38;;;20.06
64600;BMP280;6553;48.412;9.514;2023-03-23T06:48:00;71683.19;;;20.03
64600;BMP280;6553;48.412;9.514;2023-03-23T06:50:29;71678.72;;;20.04
64600;BMP280;6553;48.412;9.514;2023-03-23T06:52:55;71681.56;;;20.02
64600;BMP280;6553;48.412;9.514;2023-03-23T06:55:21;71678.19;;;20.04
64600;BMP280;6553;48.412;9.514;2023-03-23T06:57:47;71680.41;;;20.03
64600;BMP280;6553;48.412;9.514;2023-03-23T07:00:13;71678.19;;;20.04
64600;BMP280;6553;48.412;9.514;2023-03-23T07:02:43;71680.94;;;20.04
64600;BMP280;6553;48.412;9.514;2023-03-23T07:05:11;71678.72;;;20.04
64600;BMP280;6553;48.412;9.514;2023-03-23T07:07:39;71681.03;;;20.01
64600;BMP280;6553;48.412;9.514;2023-03-23T07:10:19;71681.47;;;20.04
64600;BMP280;6553;48.412;9.514;2023-03-23T07:12:45;71683.19;;;20.03
64600;BMP280;6553;48.412;9.514;2023-03-23T07:15:11;71682.44;;;20.08
64600;BMP280;6553;48.412;9.514;2023-03-23T07:17:40;71686.91;;;20.07
64600;BMP280;6553;48.412;9.514;2023-03-23T07:20:18;71683.19;;;20.03
64600;BMP280;6553;48.412;9.514;2023-03-23T07:22:44;71678.72;;;20.04
64600;BMP280;6553;48.412;9.514;2023-03-23T07:25:21;71688.06;;;20.05
64600;BMP280;6553;48.412;9.514;2023-03-23T07:27:50;71684.78;;;20.05
64600;BMP280;6553;48.412;9.514;2023-03-23T07:30:17;71683.06;;;20.06
64600;BMP280;6553;48.412;9.514;2023-03-23T07:32:42;71683.06;;;20.06
64600;BMP280;6553;48.412;9.514;2023-03-23T07:35:09;71683.59;;;20.06
64600;BMP280;6553;48.412;9.514;2023-03-23T07:37:49;71688.50;;;20.08
64600;BMP280;6553;48.412;9.514;2023-03-23T07:40:16;71702.88;;;20.09
64600;BMP280;6553;48.412;9.514;2023-03-23T07:42:52;71687.53;;;20.05
64600;BMP280;6553;48.412;9.514;2023-03-23T07:45:27;71682.94;;;20.08
64600;BMP280;6553;48.412;9.514;2023-03-23T07:47:56;71687.44;;;20.07
64600;BMP280;6553;48.412;9.514;2023-03-23T07:50:22;71680.41;;;20.03
64600;BMP280;6553;48.412;9.514;2023-03-23T07:52:54;71689.66;;;20.07
64600;BMP280;6553;48.412;9.514;2023-03-23T07:55:21;71689.03;;;20.09
64600;BMP280;6553;48.412;9.514;2023-03-23T07:58:13;71689.03;;;20.09
64600;BMP280;6553;48.412;9.514;2023-03-23T08:00:46;71687.97;;;20.08
64600;BMP280;6553;48.412;9.514;2023-03-23T08:03:15;71686.38;;;20.06
64600;BMP280;6553;48.412;9.514;2023-03-23T08:06:05;71689.56;;;20.09
64600;BMP280;6553;48.412;9.514;2023-03-23T08:08:50;71686.25;;;20.09
64600;BMP280;6553;48.412;9.514;2023-03-23T08:11:35;71682.94;;;20.08
64600;BMP280;6553;48.412;9.514;2023-03-23T08:14:27;71682.44;;;20.08
64600;BMP280;6553;48.412;9.514;2023-03-23T08:17:04;71686.78;;;20.09
64600;BMP280;6553;48.412;9.514;2023-03-23T08:20:08;71691.69;;;20.11
64600;BMP280;6553;48.412;9.514;2023-03-23T08:23:08;71691.16;;;20.11
64600;BMP280;6553;48.412;9.514;2023-03-23T08:25:41;71692.19;;;20.12
64600;BMP280;6553;48.412;9.514;2023-03-23T08:28:31;71693.38;;;20.10
64600;BMP280;6553;48.412;9.514;2023-03-23T08:31:16;71694.88;;;20.14
64600;BMP280;6553;48.412;9.514;2023-03-23T08:34:05;71693.81;;;20.13
64600;BMP280;6553;48.412;9.514;2023-03-23T08:36:43;71695.41;;;20.15
64600;BMP280;6553;48.412;9.514;2023-03-23T08:39:18;71693.81;;;20.13
64600;BMP280;6553;48.412;9.514;2023-03-23T08:42:07;71692.63;;;20.15
64600;BMP280;6553;48.412;9.514;2023-03-23T08:44:52;71699.63;;;20.19
64600;BMP280;6553;48.412;9.514;2023-03-23T08:47:37;71699.63;;;20.19
64600;BMP280;6553;48.412;9.514;2023-03-23T08:50:28;71699.63;;;20.19
64600;BMP280;6553;48.412;9.514;2023-03-23T08:53:19;71696.34;;;20.18
64600;BMP280;6553;48.412;9.514;2023-03-23T08:55:47;71701.25;;;20.20
64600;BMP280;6553;48.412;9.514;2023-03-23T08:58:38;71702.94;;;20.19
64600;BMP280;6553;48.412;9.514;2023-03-23T09:01:07;71693.03;;;20.18
64600;BMP280;6553;48.412;9.514;2023-03-23T09:03:52;71698.47;;;20.20
64600;BMP280;6553;48.412;9.514;2023-03-23T09:06:31;71695.16;;;20.20
64600;BMP280;6553;48.412;9.514;2023-03-23T09:08:58;71700.69;;;20.20
64600;BMP280;6553;48.412;9.514;2023-03-23T09:11:27;71700.16;;;20.19
64600;BMP280;6553;48.412;9.514;2023-03-23T09:13:53;71700.56;;;20.22
64600;BMP280;6553;48.412;9.514;2023-03-23T09:16:22;71703.88;;;20.23
64600;BMP280;6553;48.412;9.514;2023-03-23T09:18:51;71703.34;;;20.22
64600;BMP280;6553;48.412;9.514;2023-03-23T09:21:17;71701.25;;;20.20
64600;BMP280;6553;48.412;9.514;2023-03-23T09:23:43;71701.25;;;20.20
64600;BMP280;6553;48.412;9.514;2023-03-23T09:26:13;71693.56;;;20.18
64600;BMP280;6553;48.412;9.514;2023-03-23T09:28:40;71706.13;;;20.22
64600;BMP280;6553;48.412;9.514;2023-03-23T09:31:06;71706.13;;;20.22
64600;BMP280;6553;48.412;9.514;2023-03-23T09:33:31;71700.69;;;20.20
64600;BMP280;6553;48.412;9.514;2023-03-23T09:36:00;71700.56;;;20.22
64600;BMP280;6553;48.412;9.514;2023-03-23T09:38:28;71703.34;;;20.22
64600;BMP280;6553;48.412;9.514;2023-03-23T09:49:12;71711.44;;;20.27
64600;BMP280;6553;48.412;9.514;2023-03-23T09:52:04;71714.22;;;20.27
64600;BMP280;6553;48.412;9.514;2023-03-23T09:54:38;71707.59;;;20.26
64600;BMP280;6553;48.412;9.514;2023-03-23T09:57:24;71706.53;;;20.25
64600;BMP280;6553;48.412;9.514;2023-03-23T10:00:02;71702.59;;;20.27
64600;BMP280;6553;48.412;9.514;2023-03-23T10:05:44;71706.53;;;20.25
64600;BMP280;6553;48.412;9.514;2023-03-23T10:08:25;71697.00;;;20.16
64600;BMP280;6553;48.412;9.514;2023-03-23T10:17:12;71704.72;;;20.29
64600;BMP280;6553;48.412;9.514;2023-03-23T10:20:09;71711.34;;;20.30
64600;BMP280;6553;48.412;9.514;2023-03-23T10:26:02;71705.25;;;20.29
64600;BMP280;6553;48.412;9.514;2023-03-23T10:28:43;71714.63;;;20.30
64600;BMP280;6553;48.412;9.514;2023-03-23T10:31:20;71714.50;;;20.33
64600;BMP280;6553;48.412;9.514;2023-03-23T10:33:50;71712.28;;;20.33
64600;BMP280;6553;48.412;9.514;2023-03-23T10:36:28;71714.50;;;20.33
64600;BMP280;6553;48.412;9.514;2023-03-23T10:39:14;71710.03;;;20.34
64600;BMP280;6553;48.412;9.514;2023-03-23T10:41:42;71716.13;;;20.34
64600;BMP280;6553;48.412;9.514;2023-03-23T10:44:23;71719.41;;;20.35
64600;BMP280;6553;48.412;9.514;2023-03-23T10:47:01;71711.63;;;20.35
64600;BMP280;6553;48.412;9.514;2023-03-23T10:49:41;71711.63;;;20.35
64600;BMP280;6553;48.412;9.514;2023-03-23T10:55:21;71711.63;;;20.35
64600;BMP280;6553;48.412;9.514;2023-03-23T10:58:11;71713.34;;;20.34
64600;BMP280;6553;48.412;9.514;2023-03-23T11:00:46;71714.91;;;20.36
64600;BMP280;6553;48.412;9.514;2023-03-23T11:05:47;71722.06;;;20.37
64600;BMP280;6553;48.412;9.514;2023-03-23T11:08:21;71715.44;;;20.36
64600;BMP280;6553;48.412;9.514;2023-03-23T11:10:54;71716.13;;;20.34
64600;BMP280;6553;48.412;9.514;2023-03-23T11:13:26;71717.16;;;20.35
64600;BMP280;6553;48.412;9.514;2023-03-23T11:15:52;71715.03;;;20.33
64600;BMP280;6553;48.412;9.514;2023-03-23T11:18:34;71715.44;;;20.36
64600;BMP280;6553;48.412;9.514;2023-03-23T11:21:03;71715.03;;;20.33
64600;BMP280;6553;48.412;9.514;2023-03-23T11:23:36;71712.13;;;20.36
64600;BMP280;6553;48.412;9.514;2023-03-23T11:31:45;71714.41;;;20.35
64600;BMP280;6553;48.412;9.514;2023-03-23T11:34:33;71718.22;;;20.36
64600;BMP280;6553;48.412;9.514;2023-03-23T11:37:06;71718.75;;;20.37
64600;BMP280;6553;48.412;9.514;2023-03-23T11:39:55;71719.84;;;20.38
64600;BMP280;6553;48.412;9.514;2023-03-23T11:45:34;71718.22;;;20.36
64600;BMP280;6553;48.412;9.514;2023-03-23T11:54:25;71716.41;;;20.40
64600;BMP280;6553;48.412;9.514;2023-03-23T11:56:52;71720.88;;;20.39
64600;BMP280;6553;48.412;9.514;2023-03-23T12:05:32;71724.63;;;20.42
64600;BMP280;6553;48.412;9.514;2023-03-23T12:08:50;71719.06;;;20.42
64600;BMP280;6553;48.412;9.514;2023-03-23T12:14:13;71721.94;;;20.40
64600;BMP280;6553;48.412;9.514;2023-03-23T12:20:05;71727.91;;;20.43
64600;BMP280;6553;48.412;9.514;2023-03-23T12:22:41;71725.66;;;20.43
64600;BMP280;6553;48.412;9.514;2023-03-23T12:33:33;71722.47;;;20.40
64600;BMP280;6553;48.412;9.514;2023-03-23T12:41:49;71722.47;;;20.40
64600;BMP280;6553;48.412;9.514;2023-03-23T12:44:30;71721.84;;;20.42
64600;BMP280;6553;48.412;9.514;2023-03-23T12:50:03;71724.63;;;20.42
64600;BMP280;6553;48.412;9.514;2023-03-23T12:52:49;71723.53;;;20.41
64600;BMP280;6553;48.412;9.514;2023-03-23T12:55:32;71716.94;;;20.40
64600;BMP280;6553;48.412;9.514;2023-03-23T12:58:09;71724.16;;;20.39
64600;BMP280;6553;48.412;9.514;2023-03-23T13:01:36;71719.28;;;20.37
64600;BMP280;6553;48.412;9.514;2023-03-23T13:04:20;71719.84;;;20.38
64600;BMP280;6553;48.412;9.514;2023-03-23T13:06:48;71714.91;;;20.36
64600;BMP280;6553;48.412;9.514;2023-03-23T13:12:11;71721.53;;;20.37
64600;BMP280;6553;48.412;9.514;2023-03-23T13:15:03;71722.06;;;20.37
64600;BMP280;6553;48.412;9.514;2023-03-23T13:17:54;71722.06;;;20.37
64600;BMP280;6553;48.412;9.514;2023-03-23T13:20:48;71713.84;;;20.35
64600;BMP280;6553;48.412;9.514;2023-03-23T13:23:52;71714.91;;;20.36
64600;BMP280;6553;48.412;9.514;2023-03-23T13:26:24;71712.69;;;20.36
64600;BMP280;6553;48.412;9.514;2023-03-23T13:31:27;71716.00;;;20.37
64600;BMP280;6553;48.412;9.514;2023-03-23T13:36:52;71718.75;;;20.37
64600;BMP280;6553;48.412;9.514;2023-03-23T13:39:35;71711.63;;;20.35
64600;BMP280;6553;48.412;9.514;2023-03-23T13:50:10;71712.69;;;20.36
64600;BMP280;6553;48.412;9.514;2023-03-23T13:57:57;71714.41;;;20.35
64600;BMP280;6553;48.412;9.514;2023-03-23T14:08:41;71723.13;;;20.38
64600;BMP280;6553;48.412;9.514;2023-03-23T14:11:25;71723.13;;;20.38
64600;BMP280;6553;48.412;9.514;2023-03-23T14:14:03;71720.38;;;20.38
64600;BMP280;6553;48.412;9.514;2023-03-23T14:16:44;71721.94;;;20.40
64600;BMP280;6553;48.412;9.514;2023-03-23T14:19:22;71723.66;;;20.39
64600;BMP280;6553;48.412;9.514;2023-03-23T14:22:00;71721.41;;;20.39
64600;BMP280;6553;48.412;9.514;2023-03-23T14:24:33;71722.59;;;20.38
64600;BMP280;6553;48.412;9.514;2023-03-23T14:27:21;71717.06;;;20.38
64600;BMP280;6553;48.412;9.514;2023-03-23T14:29:59;71717.06;;;20.38
64600;BMP280;6553;48.412;9.514;2023-03-23T14:32:27;71714.28;;;20.38
64600;BMP280;6553;48.412;9.514;2023-03-23T14:34:54;71716.00;;;20.37
64600;BMP280;6553;48.412;9.514;2023-03-23T14:37:21;71719.28;;;20.37
64600;BMP280;6553;48.412;9.514;2023-03-23T14:39:51;71715.34;;;20.39
64600;BMP280;6553;48.412;9.514;2023-03-23T14:42:26;71720.38;;;20.38
64600;BMP280;6553;48.412;9.514;2023-03-23T14:44:53;71716.53;;;20.37
64600;BMP280;6553;48.412;9.514;2023-03-23T14:47:27;71723.75;;;20.36
64600;BMP280;6553;48.412;9.514;2023-03-23T14:50:00;71716.53;;;20.37
64600;BMP280;6553;48.412;9.514;2023-03-23T14:52:33;71719.94;;;20.35
64600;BMP280;6553;48.412;9.514;2023-03-23T14:55:21;71718.22;;;20.36
64600;BMP280;6553;48.412;9.514;2023-03-23T14:57:49;71711.09;;;20.35
64600;BMP280;6553;48.412;9.514;2023-03-23T15:02:52;71714.41;;;20.35
64600;BMP280;6553;48.412;9.514;2023-03-23T15:05:33;71713.84;;;20.35
64600;BMP280;6553;48.412;9.514;2023-03-23T15:08:27;71717.16;;;20.35
64600;BMP280;6553;48.412;9.514;2023-03-23T15:13:49;71717.81;;;20.33
64600;BMP280;6553;48.412;9.514;2023-03-23T15:16:26;71716.75;;;20.32
64600;BMP280;6553;48.412;9.514;2023-03-23T15:18:58;71715.03;;;20.33
64600;BMP280;6553;48.412;9.514;2023-03-23T15:21:46;71712.81;;;20.34
64600;BMP280;6553;48.412;9.514;2023-03-23T15:24:27;71711.72;;;20.33
64600;BMP280;6553;48.412;9.514;2023-03-23T15:26:54;71717.81;;;20.33
64600;BMP280;6553;48.412;9.514;2023-03-23T15:29:28;71712.28;;;20.33
64600;BMP280;6553;48.412;9.514;2023-03-23T15:31:55;71713.97;;;20.32
64600;BMP280;6553;48.412;9.514;2023-03-23T15:34:33;71708.97;;;20.33
64600;BMP280;6553;48.412;9.514;2023-03-23T15:37:05;71714.50;;;20.33
64600;BMP280;6553;48.412;9.514;2023-03-23T15:39:32;71713.97;;;20.32
64600;BMP280;6553;48.412;9.514;2023-03-23T15:41:59;71714.50;;;20.33
64600;BMP280;6553;48.412;9.514;2023-03-23T15:44:33;71715.16;;;20.31
64600;BMP280;6553;48.412;9.514;2023-03-23T15:47:18;71709.59;;;20.31
64600;BMP280;6553;48.412;9.514;2023-03-23T15:49:46;71709.59;;;20.31
64600;BMP280;6553;48.412;9.514;2023-03-23T15:52:13;71715.69;;;20.31
64600;BMP280;6553;48.412;9.514;2023-03-23T15:54:47;71704.72;;;20.29
64600;BMP280;6553;48.412;9.514;2023-03-23T15:57:13;71709.59;;;20.31
64600;BMP280;6553;48.412;9.514;2023-03-23T15:59:39;71711.97;;;20.28
64600;BMP280;6553;48.412;9.514;2023-03-23T16:02:05;71709.75;;;20.28
64600;BMP280;6553;48.412;9.514;2023-03-23T16:04:31;71711.97;;;20.28
64600;BMP280;6553;48.412;9.514;2023-03-23T16:06:59;71703.66;;;20.28
64600;BMP280;6553;48.412;9.514;2023-03-23T16:09:25;71703.13;;;20.27
64600;BMP280;6553;48.412;9.514;2023-03-23T16:11:51;71709.75;;;20.28
64600;BMP280;6553;48.412;9.514;2023-03-23T16:14:16;71714.22;;;20.27
64600;BMP280;6553;48.412;9.514;2023-03-23T16:16:49;71707.59;;;20.26
64600;BMP280;6553;48.412;9.514;2023-03-23T16:19:17;71705.34;;;20.27
64600;BMP280;6553;48.412;9.514;2023-03-23T16:21:47;71704.81;;;20.26
64600;BMP280;6553;48.412;9.514;2023-03-23T16:24:13;71707.06;;;20.26
64600;BMP280;6553;48.412;9.514;2023-03-23T16:26:39;71708.81;;;20.25
64600;BMP280;6553;48.412;9.514;2023-03-23T16:29:15;71703.78;;;20.25
64600;BMP280;6553;48.412;9.514;2023-03-23T16:31:41;71703.78;;;20.25
64600;BMP280;6553;48.412;9.514;2023-03-23T16:34:07;71706.03;;;20.25
64600;BMP280;6553;48.412;9.514;2023-03-23T16:36:34;71706.53;;;20.25
64600;BMP280;6553;48.412;9.514;2023-03-23T16:38:59;71705.34;;;20.27
64600;BMP280;6553;48.412;9.514;2023-03-23T16:41:25;71706.53;;;20.25
64600;BMP280;6553;48.412;9.514;2023-03-23T16:43:51;71701.66;;;20.23
64600;BMP280;6553;48.412;9.514;2023-03-23T16:46:17;71703.88;;;20.23
64600;BMP280;6553;48.412;9.514;2023-03-23T16:48:43;71703.34;;;20.22
64600;BMP280;6553;48.412;9.514;2023-03-23T16:51:09;71699.53;;;20.21
64600;BMP280;6553;48.412;9.514;2023-03-23T16:53:35;71702.31;;;20.21
64600;BMP280;6553;48.412;9.514;2023-03-23T16:56:02;71704.41;;;20.23
64600;BMP280;6553;48.412;9.514;2023-03-23T16:58:28;71702.81;;;20.22
64600;BMP280;6553;48.412;9.514;2023-03-23T17:00:54;71714.44;;;20.22
64600;BMP280;6553;48.412;9.514;2023-03-23T17:03:21;71696.78;;;20.21
64600;BMP280;6553;48.412;9.514;2023-03-23T17:05:50;71695.28;;;20.17